createdAt,value
2019-01-11T00:01:42.089Z,14.80
2019-01-11T00:04:32.084Z,11.57
2019-01-11T00:07:15.191Z,16.60
2019-01-11T00:10:05.597Z,14.60
2019-01-11T00:12:53.405Z,13.53
2019-01-11T00:15:43.716Z,16.43
2019-01-11T00:18:26.484Z,12.73
2019-01-11T00:21:16.283Z,12.43
2019-01-11T00:23:58.818Z,13.70
2019-01-11T00:26:49.999Z,16.83
2019-01-11T00:29:36.954Z,14.73
2019-01-11T00:32:27.105Z,12.53
2019-01-11T00:35:10.050Z,17.33
2019-01-11T00:37:59.813Z,17.07
2019-01-11T00:40:42.823Z,18.00
2019-01-11T00:43:32.654Z,16.53
2019-01-11T00:46:15.138Z,17.67
2019-01-11T00:49:05.200Z,17.30
2019-01-11T00:51:47.812Z,19.53
2019-01-11T00:54:37.603Z,15.80
2019-01-11T00:57:20.175Z,20.27
2019-01-11T01:00:14.215Z,18.33
2019-01-11T01:02:56.328Z,18.17
2019-01-11T01:05:46.188Z,17.77
2019-01-11T01:08:30.595Z,17.57
2019-01-11T01:11:20.372Z,17.30
2019-01-11T01:14:02.640Z,19.73
2019-01-11T01:16:52.410Z,17.93
2019-01-11T01:25:22.722Z,16.00
2019-01-11T01:28:12.482Z,17.23
2019-01-11T01:31:02.247Z,18.03
2019-01-11T01:33:45.110Z,19.70
2019-01-11T01:36:34.818Z,19.07
2019-01-11T01:39:18.104Z,20.67
2019-01-11T01:42:08.196Z,20.53
2019-01-11T01:44:55.080Z,20.97
2019-01-11T01:47:45.233Z,21.57
2019-01-11T01:50:29.105Z,22.97
2019-01-11T01:53:18.880Z,27.63
2019-01-11T01:56:01.186Z,20.97
2019-01-11T01:58:51.804Z,19.87
2019-01-11T02:01:34.209Z,19.93
2019-01-11T02:04:23.992Z,20.47
2019-01-11T02:10:03.182Z,20.90
2019-01-11T02:12:53.034Z,22.40
2019-01-11T02:15:42.982Z,20.20
2019-01-11T02:18:32.811Z,20.87
2019-01-11T02:21:22.636Z,20.83
2019-01-11T02:24:12.448Z,21.40
2019-01-11T02:27:02.216Z,21.87
2019-01-11T02:30:04.960Z,18.40
2019-01-11T02:32:52.437Z,23.63
2019-01-11T02:35:39.016Z,19.60
2019-01-11T02:38:22.116Z,17.87
2019-01-11T02:41:11.864Z,16.43
2019-01-11T02:43:54.310Z,16.43
2019-01-11T02:46:44.137Z,13.67
2019-01-11T02:49:26.474Z,16.10
2019-01-11T02:52:16.513Z,17.03
2019-01-11T02:55:02.770Z,16.83
2019-01-11T02:57:52.576Z,15.80
2019-01-11T03:00:38.492Z,17.60
2019-01-11T03:03:28.404Z,15.23
2019-01-11T03:06:11.587Z,17.43
2019-01-11T03:09:01.340Z,16.10
2019-01-11T03:11:47.450Z,17.67
2019-01-11T03:14:37.235Z,18.00
2019-01-11T03:17:19.828Z,16.47
2019-01-11T03:20:09.736Z,16.87
2019-01-11T03:22:52.681Z,19.47
2019-01-11T03:25:43.252Z,17.70
2019-01-11T03:37:34.723Z,18.70
2019-01-11T03:40:18.498Z,18.30
2019-01-11T03:43:08.423Z,16.67
2019-01-11T03:45:58.411Z,18.67
2019-01-11T03:48:49.080Z,17.60
2019-01-11T03:51:38.863Z,17.10
2019-01-11T03:54:28.707Z,16.33
2019-01-11T03:57:18.858Z,17.37
2019-01-11T04:00:12.037Z,17.00
2019-01-11T04:02:54.129Z,18.10
2019-01-11T04:05:44.052Z,15.07
2019-01-11T04:08:33.909Z,18.20
2019-01-11T04:11:23.733Z,16.20
2019-01-11T04:17:17.700Z,15.83
2019-01-11T04:20:02.162Z,14.03
2019-01-11T04:23:10.380Z,14.57
2019-01-11T04:26:01.125Z,16.03
2019-01-11T04:28:50.939Z,23.03
2019-01-11T04:31:41.051Z,21.17
2019-01-11T04:34:43.201Z,18.90
2019-01-11T04:37:26.539Z,13.43
2019-01-11T04:40:18.355Z,16.40
2019-01-11T04:43:00.715Z,17.93
2019-01-11T04:45:50.498Z,13.67
2019-01-11T04:48:32.497Z,12.60
2019-01-11T04:51:23.448Z,12.33
2019-01-11T04:54:06.400Z,11.57
2019-01-11T04:56:56.142Z,11.57
2019-01-11T04:59:38.453Z,14.80
2019-01-11T05:02:28.181Z,11.57
2019-01-11T05:05:12.619Z,11.87
2019-01-11T05:08:02.405Z,16.60
2019-01-11T05:10:44.574Z,14.30
2019-01-11T05:13:53.563Z,11.70
2019-01-11T05:16:39.574Z,12.10
2019-01-11T05:19:27.871Z,8.67
2019-01-11T05:22:10.141Z,11.30
2019-01-11T05:24:59.966Z,13.00
2019-01-11T05:27:43.991Z,10.60
2019-01-11T05:30:33.721Z,12.57
2019-01-11T05:33:20.158Z,9.97
2019-01-11T05:39:33.405Z,9.83
2019-01-11T05:42:24.167Z,10.47
2019-01-11T05:45:14.127Z,13.77
2019-01-11T05:48:03.936Z,9.17
2019-01-11T05:50:53.696Z,17.53
2019-01-11T05:53:36.274Z,15.93
2019-01-11T05:59:48.849Z,12.00
2019-01-11T06:02:33.680Z,8.20
2019-01-11T06:05:23.802Z,10.63
2019-01-11T06:08:15.920Z,10.70
2019-01-11T06:11:05.994Z,12.77
2019-01-11T06:13:48.088Z,10.63
2019-01-11T06:16:37.864Z,12.87
2019-01-11T06:19:19.980Z,10.57
2019-01-11T06:22:09.739Z,9.77
2019-01-11T06:24:52.436Z,12.60
2019-01-11T06:27:23.156Z,11.07
2019-01-11T06:30:14.324Z,12.87
2019-01-11T06:32:58.224Z,22.50
2019-01-11T06:35:40.228Z,46.77
2019-01-11T06:38:42.380Z,23.50
2019-01-11T06:41:27.344Z,21.33
2019-01-11T06:44:17.166Z,23.47
2019-01-11T06:47:00.634Z,19.80
2019-01-11T06:49:50.363Z,14.83
2019-01-11T06:52:33.326Z,13.93
2019-01-11T06:55:42.178Z,14.33
2019-01-11T06:58:24.256Z,10.87
2019-01-11T07:01:14.003Z,13.93
2019-01-11T07:03:56.390Z,12.03
2019-01-11T07:06:46.158Z,11.33
2019-01-11T07:09:28.492Z,9.63
2019-01-11T07:15:21.293Z,9.90
2019-01-11T07:18:11.121Z,8.70
2019-01-11T07:20:55.492Z,12.13
2019-01-11T07:23:45.198Z,10.03
2019-01-11T07:26:27.899Z,12.00
2019-01-11T07:29:17.658Z,11.87
2019-01-11T07:32:03.875Z,9.87
2019-01-11T07:34:53.663Z,9.73
2019-01-11T07:37:36.527Z,10.10
2019-01-11T07:40:26.286Z,11.93
2019-01-11T07:49:09.514Z,12.40
2019-01-11T07:51:59.362Z,9.63
2019-01-11T07:54:42.122Z,9.30
2019-01-11T08:00:35.059Z,10.20
2019-01-11T08:06:26.559Z,8.43
2019-01-11T08:09:16.303Z,10.97
2019-01-11T08:11:59.037Z,11.37
2019-01-11T08:14:48.768Z,10.93
2019-01-11T08:17:30.951Z,9.87
2019-01-11T08:20:20.751Z,10.37
2019-01-11T08:23:03.224Z,8.87
2019-01-11T08:25:53.031Z,11.00
2019-01-11T08:28:42.804Z,10.87
2019-01-11T08:31:25.531Z,9.10
2019-01-11T08:34:15.277Z,9.17
2019-01-11T08:40:01.182Z,11.40
2019-01-11T08:42:45.136Z,8.87
2019-01-11T08:45:34.965Z,10.83
2019-01-11T08:48:37.919Z,10.20
2019-01-11T08:51:20.917Z,9.00
2019-01-11T08:54:10.661Z,10.13
2019-01-11T08:56:52.937Z,9.97
2019-01-11T08:59:42.641Z,9.70
2019-01-11T09:02:25.199Z,10.57
2019-01-11T09:05:14.945Z,9.43
2019-01-11T09:08:01.231Z,9.00
2019-01-11T09:10:50.965Z,9.53
2019-01-11T09:13:33.688Z,9.63
2019-01-11T09:16:23.436Z,10.07
2019-01-11T09:19:06.909Z,8.17
2019-01-11T09:21:56.627Z,8.70
2019-01-11T09:24:46.367Z,8.27
2019-01-11T09:27:28.843Z,10.97
2019-01-11T09:30:18.601Z,8.13
2019-01-11T09:33:00.855Z,9.60
2019-01-11T09:35:50.959Z,8.43
2019-01-11T09:38:53.688Z,10.33
2019-01-11T09:41:35.786Z,8.80
2019-01-11T09:44:44.649Z,9.87
2019-01-11T09:47:28.248Z,12.27
2019-01-11T09:50:18.012Z,9.53
2019-01-11T09:53:00.138Z,12.37
2019-01-11T09:55:49.885Z,9.80
2019-01-11T09:58:36.065Z,8.03
2019-01-11T10:01:25.818Z,10.40
2019-01-11T10:04:10.216Z,9.30
2019-01-11T10:10:18.963Z,11.23
2019-01-11T10:13:08.732Z,10.53
2019-01-11T10:15:51.053Z,11.23
2019-01-11T10:18:40.855Z,11.30
2019-01-11T10:21:30.656Z,13.63
2019-01-11T10:24:14.717Z,11.70
2019-01-11T10:26:59.013Z,12.20
2019-01-11T10:29:48.884Z,12.03
2019-01-11T10:32:38.650Z,11.37
2019-01-11T10:35:41.764Z,11.93
2019-01-11T10:38:24.820Z,12.27
2019-01-11T10:41:14.527Z,11.73
2019-01-11T10:44:00.774Z,13.00
2019-01-11T10:46:50.509Z,11.60
2019-01-11T10:49:32.826Z,11.80
2019-01-11T10:52:22.609Z,14.40
2019-01-11T10:55:05.480Z,12.00
2019-01-11T10:57:55.311Z,12.40
2019-01-11T11:00:45.179Z,13.03
2019-01-11T11:03:34.967Z,12.47
2019-01-11T11:06:43.816Z,13.70
2019-01-11T11:09:33.563Z,13.80
2019-01-11T11:15:19.832Z,13.70
2019-01-11T11:18:09.558Z,12.60
2019-01-11T11:20:59.400Z,12.87
2019-01-11T11:23:43.272Z,11.93
2019-01-11T11:26:33.076Z,11.57
2019-01-11T11:35:35.614Z,12.20
2019-01-11T11:38:25.508Z,11.00
2019-01-11T11:41:07.879Z,14.87
2019-01-11T11:43:58.038Z,12.33
2019-01-11T11:46:44.216Z,12.87
2019-01-11T11:49:34.128Z,13.20
2019-01-11T11:52:16.928Z,12.47
2019-01-11T11:55:07.130Z,13.00
2019-01-11T11:57:50.252Z,12.80
2019-01-11T12:00:39.992Z,12.43
2019-01-11T12:03:23.434Z,12.10
2019-01-11T12:06:13.182Z,12.87
2019-01-11T12:08:57.770Z,12.87
2019-01-11T12:11:47.504Z,16.37
2019-01-11T12:14:29.523Z,12.23
2019-01-11T12:17:19.272Z,12.80
2019-01-11T12:20:01.808Z,11.03
2019-01-11T12:22:51.552Z,13.17
2019-01-11T12:25:33.914Z,12.67
2019-01-11T12:28:23.694Z,11.57
2019-01-11T12:31:06.008Z,12.97
2019-01-11T12:33:55.781Z,14.90
2019-01-11T12:36:41.845Z,12.33
2019-01-11T12:39:31.544Z,11.70
2019-01-11T12:42:14.114Z,13.30
2019-01-11T12:45:04.612Z,14.73
2019-01-11T12:47:47.284Z,11.93
2019-01-11T12:50:24.615Z,12.07
2019-01-11T12:53:14.360Z,12.30
2019-01-11T12:55:56.783Z,13.07
2019-01-11T12:58:46.588Z,13.00
2019-01-11T13:01:50.088Z,11.50
2019-01-11T13:04:34.877Z,13.97
2019-01-11T13:07:24.965Z,10.30
2019-01-11T13:10:08.051Z,12.57
2019-01-11T13:12:57.818Z,15.10
2019-01-11T13:15:40.766Z,11.20
2019-01-11T13:18:30.566Z,11.53
2019-01-11T13:21:17.072Z,11.70
2019-01-11T13:24:07.425Z,11.10
2019-01-11T13:26:50.227Z,15.60
2019-01-11T13:29:40.021Z,12.23
2019-01-11T13:32:26.183Z,14.70
2019-01-11T13:35:16.026Z,10.87
2019-01-11T13:38:02.530Z,11.63
2019-01-11T13:41:11.659Z,11.93
2019-01-11T13:43:55.876Z,13.33
2019-01-11T13:46:45.756Z,13.93
2019-01-11T13:49:32.265Z,13.70
2019-01-11T13:52:22.221Z,13.70
2019-01-11T13:55:08.960Z,13.73
2019-01-11T13:57:58.791Z,12.13
2019-01-11T14:00:42.856Z,13.23
2019-01-11T14:03:32.979Z,15.17
2019-01-11T14:06:15.745Z,15.93
2019-01-11T14:12:24.884Z,15.50
2019-01-11T14:15:06.983Z,15.27
2019-01-11T14:17:56.809Z,16.17
2019-01-11T14:20:46.631Z,16.63
2019-01-11T14:23:50.196Z,17.33
2019-01-11T14:26:34.625Z,14.37
2019-01-11T14:29:24.390Z,14.53
2019-01-11T14:32:07.600Z,15.33
2019-01-11T14:34:57.368Z,16.70
2019-01-11T14:37:39.534Z,15.23
2019-01-11T14:40:30.116Z,16.90
2019-01-11T14:43:14.092Z,15.73
2019-01-11T14:46:03.813Z,18.80
2019-01-11T14:48:46.375Z,16.10
2019-01-11T14:51:36.194Z,16.07
2019-01-11T14:54:20.949Z,14.87
2019-01-11T14:57:10.711Z,17.13
2019-01-11T14:59:52.842Z,17.20
2019-01-11T15:02:42.685Z,17.80
2019-01-11T15:05:24.777Z,21.23
2019-01-11T15:08:14.564Z,16.67
2019-01-11T15:10:56.963Z,18.37
2019-01-11T15:13:47.012Z,17.40
2019-01-11T15:16:29.942Z,17.10
2019-01-11T15:19:20.006Z,16.53
2019-01-11T15:22:02.889Z,17.37
2019-01-11T15:24:53.569Z,19.53
2019-01-11T15:27:43.682Z,17.37
2019-01-11T15:30:30.272Z,18.73
2019-01-11T15:33:17.418Z,20.67
2019-01-11T15:36:00.720Z,18.50
2019-01-11T15:38:50.548Z,18.40
2019-01-11T15:41:40.348Z,20.27
2019-01-11T15:44:30.180Z,19.00
2019-01-11T15:47:14.434Z,16.70
2019-01-11T15:50:16.362Z,19.07
2019-01-11T15:53:05.917Z,18.57
2019-01-11T15:55:53.425Z,18.37
2019-01-11T15:58:36.118Z,17.13
2019-01-11T16:04:23.845Z,18.83
2019-01-11T16:07:13.678Z,20.50
2019-01-11T16:13:26.355Z,21.23
2019-01-11T16:16:54.224Z,19.07
2019-01-11T16:25:45.980Z,20.17
2019-01-11T16:28:28.139Z,17.30
2019-01-11T16:31:17.994Z,16.37
2019-01-11T16:34:09.842Z,18.57
2019-01-11T16:36:57.041Z,17.83
2019-01-11T16:39:41.383Z,16.83
2019-01-11T16:42:31.487Z,17.10
2019-01-11T16:48:17.279Z,16.93
2019-01-11T16:51:07.080Z,17.20
2019-01-11T16:53:49.249Z,19.77
2019-01-11T16:56:39.063Z,19.93
2019-01-11T16:59:28.851Z,22.33
2019-01-11T17:02:18.615Z,18.03
2019-01-11T17:08:04.358Z,18.40
2019-01-11T17:10:48.068Z,19.63
2019-01-11T17:13:32.220Z,19.57
2019-01-11T17:16:14.461Z,19.30
2019-01-11T17:19:04.281Z,18.43
2019-01-11T17:21:54.124Z,18.73
2019-01-11T17:24:44.149Z,19.53
2019-01-11T17:27:34.319Z,19.87
2019-01-11T17:30:24.479Z,22.00
2019-01-11T17:33:15.134Z,19.83
2019-01-11T17:35:57.597Z,19.63
2019-01-11T17:38:47.435Z,22.33
2019-01-11T17:41:37.069Z,21.60
2019-01-11T17:44:19.613Z,21.17
2019-01-11T17:47:27.246Z,22.53
2019-01-11T17:50:14.826Z,20.37
2019-01-11T17:53:04.716Z,17.60
2019-01-11T17:55:54.947Z,17.07
2019-01-11T17:58:44.791Z,17.20
2019-01-11T18:01:34.711Z,19.97
2019-01-11T18:04:24.637Z,15.03
2019-01-11T18:07:14.707Z,16.87
2019-01-11T18:13:00.121Z,17.47
2019-01-11T18:15:50.009Z,17.43
2019-01-11T18:18:32.714Z,16.47
2019-01-11T18:21:22.602Z,15.70
2019-01-11T18:24:10.870Z,17.27
2019-01-11T18:26:52.915Z,18.43
2019-01-11T18:35:10.971Z,19.60
2019-01-11T18:38:01.078Z,17.90
2019-01-11T18:40:43.820Z,16.30
2019-01-11T18:46:37.233Z,18.47
2019-01-11T18:49:27.350Z,19.27
2019-01-11T18:52:10.096Z,17.97
2019-01-11T18:55:01.079Z,16.37
2019-01-11T18:57:46.592Z,20.43
2019-01-11T19:00:36.501Z,18.53
2019-01-11T19:03:19.326Z,18.20
2019-01-11T19:09:10.302Z,11.40
2019-01-11T19:11:52.747Z,9.13
2019-01-11T19:14:35.555Z,10.80
2019-01-11T19:17:25.500Z,9.10
2019-01-11T19:20:20.812Z,9.07
2019-01-11T19:23:10.601Z,8.67
2019-01-11T19:26:00.392Z,9.07
2019-01-11T19:28:44.180Z,9.57
2019-01-11T19:34:40.031Z,10.43
2019-01-11T19:37:29.180Z,8.33
2019-01-11T19:43:05.332Z,11.43
2019-01-11T19:45:55.154Z,10.03
2019-01-11T19:48:39.788Z,9.57
2019-01-11T19:51:29.638Z,11.40
2019-01-11T19:54:12.084Z,11.57
2019-01-11T19:57:01.904Z,13.40
2019-01-11T19:59:44.785Z,12.33
2019-01-11T20:02:34.559Z,14.20
2019-01-11T20:05:24.649Z,13.30
2019-01-11T20:08:09.596Z,12.53
2019-01-11T20:10:52.198Z,13.70
2019-01-11T20:13:42.074Z,14.30
2019-01-11T20:16:31.938Z,13.97
2019-01-11T20:19:22.130Z,15.33
2019-01-11T20:22:11.981Z,14.10
2019-01-11T20:25:22.370Z,17.30
2019-01-11T20:28:13.188Z,15.37
2019-01-11T20:31:02.976Z,19.43
2019-01-11T20:33:45.867Z,16.20
2019-01-11T20:42:54.923Z,18.30
2019-01-11T20:45:25.706Z,18.90
2019-01-11T20:51:12.189Z,17.07
2019-01-11T20:54:01.989Z,19.30
2019-01-11T20:56:44.209Z,19.43
2019-01-11T20:59:34.303Z,20.47
2019-01-11T21:02:16.867Z,18.27
2019-01-11T21:08:10.793Z,20.10
2019-01-11T21:11:00.878Z,16.80
2019-01-11T21:13:43.454Z,16.80
2019-01-11T21:16:47.499Z,20.00
2019-01-11T21:19:17.263Z,22.83
2019-01-11T21:22:07.071Z,22.63
2019-01-11T21:25:00.247Z,19.13
2019-01-11T21:27:41.483Z,18.53
2019-01-11T21:30:32.013Z,20.60
2019-01-11T21:33:21.825Z,20.93
2019-01-11T21:36:04.291Z,21.37
2019-01-11T21:38:54.175Z,20.67
2019-01-11T21:41:46.073Z,21.43
2019-01-11T21:44:36.035Z,21.17
2019-01-11T21:47:26.094Z,21.27
2019-01-11T21:56:26.893Z,23.97
2019-01-11T21:59:16.725Z,23.47
2019-01-11T22:01:58.855Z,26.13
2019-01-11T22:04:48.671Z,25.33
2019-01-11T22:07:31.445Z,24.90
2019-01-11T22:10:21.611Z,25.40
2019-01-11T22:13:03.977Z,25.10
2019-01-11T22:15:53.857Z,25.10
2019-01-11T22:21:33.271Z,28.00
2019-01-11T22:24:23.210Z,26.43
2019-01-11T22:27:13.331Z,30.60
2019-01-11T22:30:03.788Z,29.53
2019-01-11T22:32:53.587Z,27.13
2019-01-11T22:35:36.078Z,29.87
2019-01-11T22:38:25.968Z,30.00
2019-01-11T22:41:15.859Z,30.50
2019-01-11T22:44:05.936Z,30.60
2019-01-11T22:46:55.980Z,30.73
2019-01-11T22:58:46.699Z,29.00
2019-01-11T23:02:14.719Z,27.77
2019-01-11T23:04:56.867Z,29.57
2019-01-11T23:08:07.717Z,29.33
2019-01-11T23:11:12.368Z,27.87
2019-01-11T23:14:02.144Z,29.37
2019-01-11T23:16:47.101Z,29.27
2019-01-11T23:19:37.224Z,30.10
2019-01-11T23:22:21.684Z,31.13
2019-01-11T23:25:11.484Z,29.47
2019-01-11T23:27:54.231Z,27.73
2019-01-11T23:30:44.040Z,28.23
2019-01-11T23:33:30.557Z,26.00
2019-01-11T23:36:20.382Z,27.43
2019-01-11T23:39:04.872Z,25.40
2019-01-11T23:44:56.001Z,25.53
2019-01-11T23:47:39.068Z,26.53
2019-01-11T23:50:28.868Z,22.00
2019-01-11T23:53:11.496Z,22.80
2019-01-11T23:56:01.372Z,25.13
2019-01-11T23:58:51.165Z,23.97
